createdAt,value
2023-01-22T23:03:44.195Z,1033.11
2023-01-22T23:04:43.965Z,1033.06
2023-01-22T23:05:44.050Z,1033.05
2023-01-22T23:06:44.219Z,1032.99
2023-01-22T23:07:44.088Z,1033.01
2023-01-22T23:08:44.352Z,1033.03
2023-01-22T23:09:44.302Z,1033.07
2023-01-22T23:10:44.113Z,1033.06
2023-01-22T23:11:43.875Z,1033.08
2023-01-22T23:12:43.837Z,1033.11
2023-01-22T23:13:44.043Z,1033.12
2023-01-22T23:14:43.972Z,1033.14
2023-01-22T23:15:43.953Z,1033.13
2023-01-22T23:16:44.080Z,1033.12
2023-01-22T23:17:43.766Z,1033.14
2023-01-22T23:18:43.721Z,1033.13
2023-01-22T23:19:43.946Z,1033.06
2023-01-22T23:20:43.853Z,1033.09
2023-01-22T23:21:43.856Z,1033.11
2023-01-22T23:22:43.746Z,1033.12
2023-01-22T23:23:43.858Z,1033.11
2023-01-22T23:24:43.946Z,1033.12
2023-01-22T23:25:43.673Z,1033.09
2023-01-22T23:26:43.732Z,1033.12
2023-01-22T23:27:43.813Z,1033.13
2023-01-22T23:28:43.680Z,1033.12
2023-01-22T23:29:43.843Z,1033.15
2023-01-22T23:30:43.861Z,1033.12
2023-01-22T23:31:43.847Z,1033.14
2023-01-22T23:32:43.559Z,1033.21
2023-01-22T23:33:43.723Z,1033.20
2023-01-22T23:34:43.836Z,1033.20
2023-01-22T23:35:43.539Z,1033.23
2023-01-22T23:36:43.681Z,1033.23
2023-01-22T23:37:43.742Z,1033.17
2023-01-22T23:38:43.534Z,1033.25
2023-01-22T23:39:43.489Z,1033.24
2023-01-22T23:40:43.526Z,1033.22
2023-01-22T23:41:43.508Z,1033.23
2023-01-22T23:42:43.537Z,1033.24
2023-01-22T23:43:43.500Z,1033.24
2023-01-22T23:44:43.439Z,1033.28
2023-01-22T23:45:43.431Z,1033.30
2023-01-22T23:46:43.504Z,1033.29
2023-01-22T23:47:43.349Z,1033.28
2023-01-22T23:48:43.356Z,1033.32
2023-01-22T23:49:43.505Z,1033.28
2023-01-22T23:50:43.449Z,1033.31
2023-01-22T23:51:43.388Z,1033.29
2023-01-22T23:52:43.271Z,1033.33
2023-01-22T23:53:43.263Z,1033.29
2023-01-22T23:54:43.394Z,1033.30
2023-01-22T23:55:43.267Z,1033.31
2023-01-22T23:56:43.311Z,1033.36
2023-01-22T23:57:43.466Z,1033.32
2023-01-22T23:58:43.258Z,1033.36
2023-01-22T23:59:53.581Z,1033.41
